sensor_id;sensor_type;location;lat;lon;timestamp;P1;durP1;ratioP1;P2;durP2;ratioP2
41952;SDS011;63613;28.200;112.870;2023-04-01T00:01:19;32.03;;;27.05;;
41952;SDS011;63613;28.200;112.870;2023-04-01T00:03:46;30.65;;;27.35;;
41952;SDS011;63613;28.200;112.870;2023-04-01T00:06:14;32.17;;;28.13;;
41952;SDS011;63613;28.200;112.870;2023-04-01T00:08:43;33.75;;;28.58;;
41952;SDS011;63613;28.200;112.870;2023-04-01T00:11:30;34.97;;;28.33;;
41952;SDS011;63613;28.200;112.870;2023-04-01T00:13:56;32.17;;;28.67;;
41952;SDS011;63613;28.200;112.870;2023-04-01T00:16:23;34.03;;;28.65;;
41952;SDS011;63613;28.200;112.870;2023-04-01T00:18:50;33.58;;;29.55;;
41952;SDS011;63613;28.200;112.870;2023-04-01T00:21:18;33.22;;;29.63;;
41952;SDS011;63613;28.200;112.870;2023-04-01T00:23:46;34.80;;;29.95;;
41952;SDS011;63613;28.200;112.870;2023-04-01T00:26:13;35.67;;;30.40;;
41952;SDS011;63613;28.200;112.870;2023-04-01T00:29:00;36.60;;;31.20;;
41952;SDS011;63613;28.200;112.870;2023-04-01T00:31:27;33.10;;;29.58;;
41952;SDS011;63613;28.200;112.870;2023-04-01T00:33:54;33.53;;;29.88;;
41952;SDS011;63613;28.200;112.870;2023-04-01T00:36:21;35.40;;;30.40;;
41952;SDS011;63613;28.200;112.870;2023-04-01T00:38:49;33.28;;;28.42;;
41952;SDS011;63613;28.200;112.870;2023-04-01T00:41:17;35.40;;;30.55;;
41952;SDS011;63613;28.200;112.870;2023-04-01T00:43:47;35.38;;;31.42;;
41952;SDS011;63613;28.200;112.870;2023-04-01T00:46:16;34.22;;;30.10;;
41952;SDS011;63613;28.200;112.870;2023-04-01T00:48:49;37.10;;;30.83;;
41952;SDS011;63613;28.200;112.870;2023-04-01T00:51:20;34.45;;;30.52;;
41952;SDS011;63613;28.200;112.870;2023-04-01T00:53:54;34.08;;;30.23;;
41952;SDS011;63613;28.200;112.870;2023-04-01T00:56:43;35.55;;;29.40;;
41952;SDS011;63613;28.200;112.870;2023-04-01T00:59:25;34.72;;;30.08;;
41952;SDS011;63613;28.200;112.870;2023-04-01T01:01:58;32.67;;;27.88;;
41952;SDS011;63613;28.200;112.870;2023-04-01T01:04:28;33.50;;;29.85;;
41952;SDS011;63613;28.200;112.870;2023-04-01T01:24:05;36.17;;;29.65;;
41952;SDS011;63613;28.200;112.870;2023-04-01T01:26:54;35.08;;;28.38;;
41952;SDS011;63613;28.200;112.870;2023-04-01T01:36:02;32.25;;;28.42;;
41952;SDS011;63613;28.200;112.870;2023-04-01T01:38:15;32.58;;;28.02;;
41952;SDS011;63613;28.200;112.870;2023-04-01T01:40:46;36.63;;;28.98;;
41952;SDS011;63613;28.200;112.870;2023-04-01T01:43:21;33.13;;;28.50;;
41952;SDS011;63613;28.200;112.870;2023-04-01T01:45:55;34.45;;;27.08;;
41952;SDS011;63613;28.200;112.870;2023-04-01T01:48:26;34.95;;;29.05;;
41952;SDS011;63613;28.200;112.870;2023-04-01T01:50:55;35.10;;;28.02;;
41952;SDS011;63613;28.200;112.870;2023-04-01T01:53:22;31.10;;;27.70;;
41952;SDS011;63613;28.200;112.870;2023-04-01T01:55:51;32.75;;;27.77;;
41952;SDS011;63613;28.200;112.870;2023-04-01T01:58:23;36.58;;;27.85;;
41952;SDS011;63613;28.200;112.870;2023-04-01T02:00:56;31.33;;;25.92;;
41952;SDS011;63613;28.200;112.870;2023-04-01T02:03:29;32.72;;;27.98;;
41952;SDS011;63613;28.200;112.870;2023-04-01T02:06:00;29.55;;;25.38;;
41952;SDS011;63613;28.200;112.870;2023-04-01T02:11:02;32.20;;;25.83;;
41952;SDS011;63613;28.200;112.870;2023-04-01T02:13:38;29.88;;;24.90;;
41952;SDS011;63613;28.200;112.870;2023-04-01T02:16:23;30.05;;;25.25;;
41952;SDS011;63613;28.200;112.870;2023-04-01T02:19:15;31.45;;;26.98;;
41952;SDS011;63613;28.200;112.870;2023-04-01T02:21:51;30.38;;;24.33;;
41952;SDS011;63613;28.200;112.870;2023-04-01T02:24:22;26.65;;;23.52;;
41952;SDS011;63613;28.200;112.870;2023-04-01T02:27:11;26.75;;;23.85;;
41952;SDS011;63613;28.200;112.870;2023-04-01T02:29:40;28.77;;;24.20;;
41952;SDS011;63613;28.200;112.870;2023-04-01T02:32:08;28.10;;;25.05;;
41952;SDS011;63613;28.200;112.870;2023-04-01T02:34:35;29.25;;;23.45;;
41952;SDS011;63613;28.200;112.870;2023-04-01T02:37:03;28.33;;;23.30;;
41952;SDS011;63613;28.200;112.870;2023-04-01T02:39:30;26.60;;;22.92;;
41952;SDS011;63613;28.200;112.870;2023-04-01T02:41:56;28.98;;;24.20;;
41952;SDS011;63613;28.200;112.870;2023-04-01T02:44:29;27.85;;;23.90;;
41952;SDS011;63613;28.200;112.870;2023-04-01T02:46:56;27.70;;;23.63;;
41952;SDS011;63613;28.200;112.870;2023-04-01T02:49:26;27.17;;;23.17;;
41952;SDS011;63613;28.200;112.870;2023-04-01T02:51:55;28.50;;;22.40;;
41952;SDS011;63613;28.200;112.870;2023-04-01T02:54:22;24.98;;;22.25;;
41952;SDS011;63613;28.200;112.870;2023-04-01T02:56:49;28.23;;;23.38;;
41952;SDS011;63613;28.200;112.870;2023-04-01T02:59:16;27.35;;;23.02;;
41952;SDS011;63613;28.200;112.870;2023-04-01T03:01:43;25.38;;;22.73;;
41952;SDS011;63613;28.200;112.870;2023-04-01T03:04:10;22.90;;;20.45;;
41952;SDS011;63613;28.200;112.870;2023-04-01T03:06:40;24.75;;;21.02;;
41952;SDS011;63613;28.200;112.870;2023-04-01T03:09:08;26.98;;;22.27;;
41952;SDS011;63613;28.200;112.870;2023-04-01T03:11:38;24.20;;;21.60;;
41952;SDS011;63613;28.200;112.870;2023-04-01T03:14:06;25.73;;;22.00;;
41952;SDS011;63613;28.200;112.870;2023-04-01T03:16:32;27.08;;;22.30;;
41952;SDS011;63613;28.200;112.870;2023-04-01T03:18:59;25.23;;;22.02;;
41952;SDS011;63613;28.200;112.870;2023-04-01T03:21:27;25.95;;;21.02;;
41952;SDS011;63613;28.200;112.870;2023-04-01T03:23:54;25.73;;;21.33;;
41952;SDS011;63613;28.200;112.870;2023-04-01T03:26:21;24.55;;;21.20;;
41952;SDS011;63613;28.200;112.870;2023-04-01T03:28:48;23.17;;;20.65;;
41952;SDS011;63613;28.200;112.870;2023-04-01T03:31:15;24.65;;;21.05;;
41952;SDS011;63613;28.200;112.870;2023-04-01T03:33:46;23.33;;;20.80;;
41952;SDS011;63613;28.200;112.870;2023-04-01T03:36:14;27.27;;;21.90;;
41952;SDS011;63613;28.200;112.870;2023-04-01T03:39:02;32.60;;;23.80;;
41952;SDS011;63613;28.200;112.870;2023-04-01T03:41:31;30.45;;;25.80;;
41952;SDS011;63613;28.200;112.870;2023-04-01T03:44:00;31.30;;;25.85;;
41952;SDS011;63613;28.200;112.870;2023-04-01T03:46:27;33.53;;;27.77;;
41952;SDS011;63613;28.200;112.870;2023-04-01T03:48:54;34.20;;;28.15;;
41952;SDS011;63613;28.200;112.870;2023-04-01T03:51:24;37.92;;;28.05;;
41952;SDS011;63613;28.200;112.870;2023-04-01T03:53:51;37.05;;;30.33;;
41952;SDS011;63613;28.200;112.870;2023-04-01T03:56:17;38.92;;;29.60;;
41952;SDS011;63613;28.200;112.870;2023-04-01T03:58:44;35.33;;;28.98;;
41952;SDS011;63613;28.200;112.870;2023-04-01T04:01:17;33.97;;;28.85;;
41952;SDS011;63613;28.200;112.870;2023-04-01T04:03:49;37.63;;;28.98;;
41952;SDS011;63613;28.200;112.870;2023-04-01T04:06:18;34.92;;;28.90;;
41952;SDS011;63613;28.200;112.870;2023-04-01T04:08:45;32.80;;;27.00;;
41952;SDS011;63613;28.200;112.870;2023-04-01T04:11:12;38.15;;;28.52;;
41952;SDS011;63613;28.200;112.870;2023-04-01T04:13:39;35.60;;;29.92;;
41952;SDS011;63613;28.200;112.870;2023-04-01T04:16:06;41.10;;;28.17;;
41952;SDS011;63613;28.200;112.870;2023-04-01T04:18:34;34.72;;;26.35;;
41952;SDS011;63613;28.200;112.870;2023-04-01T04:21:01;41.47;;;30.40;;
41952;SDS011;63613;28.200;112.870;2023-04-01T04:23:28;42.38;;;30.48;;
41952;SDS011;63613;28.200;112.870;2023-04-01T04:25:57;41.33;;;30.45;;
41952;SDS011;63613;28.200;112.870;2023-04-01T04:28:25;45.53;;;34.33;;
41952;SDS011;63613;28.200;112.870;2023-04-01T04:30:53;38.15;;;30.58;;
41952;SDS011;63613;28.200;112.870;2023-04-01T04:33:21;33.53;;;28.10;;
41952;SDS011;63613;28.200;112.870;2023-04-01T04:35:49;29.63;;;23.70;;
41952;SDS011;63613;28.200;112.870;2023-04-01T04:38:20;34.72;;;27.25;;
41952;SDS011;63613;28.200;112.870;2023-04-01T04:40:49;42.28;;;30.35;;
41952;SDS011;63613;28.200;112.870;2023-04-01T04:43:18;30.17;;;23.60;;
41952;SDS011;63613;28.200;112.870;2023-04-01T04:45:46;28.92;;;22.17;;
41952;SDS011;63613;28.200;112.870;2023-04-01T04:48:16;28.15;;;22.98;;
41952;SDS011;63613;28.200;112.870;2023-04-01T04:50:47;32.08;;;25.48;;
41952;SDS011;63613;28.200;112.870;2023-04-01T04:53:15;26.98;;;21.70;;
41952;SDS011;63613;28.200;112.870;2023-04-01T04:55:44;26.00;;;19.88;;
41952;SDS011;63613;28.200;112.870;2023-04-01T04:58:13;29.20;;;23.50;;
41952;SDS011;63613;28.200;112.870;2023-04-01T05:00:43;30.60;;;22.00;;
41952;SDS011;63613;28.200;112.870;2023-04-01T05:03:11;30.42;;;22.08;;
41952;SDS011;63613;28.200;112.870;2023-04-01T05:05:38;24.17;;;20.13;;
41952;SDS011;63613;28.200;112.870;2023-04-01T05:08:13;27.23;;;20.77;;
41952;SDS011;63613;28.200;112.870;2023-04-01T05:10:40;32.05;;;22.65;;
41952;SDS011;63613;28.200;112.870;2023-04-01T05:13:08;26.52;;;22.33;;
41952;SDS011;63613;28.200;112.870;2023-04-01T05:15:34;24.70;;;17.92;;
41952;SDS011;63613;28.200;112.870;2023-04-01T05:18:02;23.38;;;19.60;;
41952;SDS011;63613;28.200;112.870;2023-04-01T05:20:50;23.90;;;20.02;;
41952;SDS011;63613;28.200;112.870;2023-04-01T05:23:18;23.70;;;19.63;;
41952;SDS011;63613;28.200;112.870;2023-04-01T05:25:47;26.92;;;19.00;;
41952;SDS011;63613;28.200;112.870;2023-04-01T05:28:16;26.77;;;21.10;;
41952;SDS011;63613;28.200;112.870;2023-04-01T05:30:43;29.83;;;19.45;;
41952;SDS011;63613;28.200;112.870;2023-04-01T05:33:13;29.02;;;20.10;;
41952;SDS011;63613;28.200;112.870;2023-04-01T05:36:10;28.25;;;18.10;;
41952;SDS011;63613;28.200;112.870;2023-04-01T05:38:39;22.63;;;17.40;;
41952;SDS011;63613;28.200;112.870;2023-04-01T05:41:07;20.42;;;15.68;;
41952;SDS011;63613;28.200;112.870;2023-04-01T05:43:39;25.40;;;18.52;;
41952;SDS011;63613;28.200;112.870;2023-04-01T05:46:06;21.10;;;17.70;;
41952;SDS011;63613;28.200;112.870;2023-04-01T05:48:34;25.42;;;19.15;;
41952;SDS011;63613;28.200;112.870;2023-04-01T05:51:02;27.40;;;19.13;;
41952;SDS011;63613;28.200;112.870;2023-04-01T05:53:29;21.48;;;18.88;;
41952;SDS011;63613;28.200;112.870;2023-04-01T05:56:01;22.10;;;16.98;;
41952;SDS011;63613;28.200;112.870;2023-04-01T05:58:30;24.02;;;16.77;;
41952;SDS011;63613;28.200;112.870;2023-04-01T06:01:02;22.67;;;17.23;;
41952;SDS011;63613;28.200;112.870;2023-04-01T06:03:30;23.63;;;17.55;;
41952;SDS011;63613;28.200;112.870;2023-04-01T06:05:57;21.75;;;15.27;;
41952;SDS011;63613;28.200;112.870;2023-04-01T06:08:26;22.08;;;16.15;;
41952;SDS011;63613;28.200;112.870;2023-04-01T06:16:48;19.65;;;15.18;;
41952;SDS011;63613;28.200;112.870;2023-04-01T06:19:41;17.50;;;14.02;;
41952;SDS011;63613;28.200;112.870;2023-04-01T06:27:51;19.25;;;14.55;;
41952;SDS011;63613;28.200;112.870;2023-04-01T06:33:42;18.80;;;15.52;;
41952;SDS011;63613;28.200;112.870;2023-04-01T06:56:14;19.65;;;16.75;;
41952;SDS011;63613;28.200;112.870;2023-04-01T06:58:48;18.08;;;14.77;;
41952;SDS011;63613;28.200;112.870;2023-04-01T07:04:20;20.00;;;14.30;;
41952;SDS011;63613;28.200;112.870;2023-04-01T07:07:04;19.05;;;14.18;;
41952;SDS011;63613;28.200;112.870;2023-04-01T07:09:56;20.63;;;15.67;;
41952;SDS011;63613;28.200;112.870;2023-04-01T07:15:10;20.33;;;16.08;;
41952;SDS011;63613;28.200;112.870;2023-04-01T07:17:52;23.30;;;17.08;;
41952;SDS011;63613;28.200;112.870;2023-04-01T07:20:42;21.77;;;17.73;;
41952;SDS011;63613;28.200;112.870;2023-04-01T07:23:29;21.33;;;15.95;;
41952;SDS011;63613;28.200;112.870;2023-04-01T07:26:11;20.98;;;15.52;;
41952;SDS011;63613;28.200;112.870;2023-04-01T07:28:50;20.00;;;15.98;;
41952;SDS011;63613;28.200;112.870;2023-04-01T07:39:54;19.73;;;16.60;;
41952;SDS011;63613;28.200;112.870;2023-04-01T07:51:09;20.55;;;17.60;;
41952;SDS011;63613;28.200;112.870;2023-04-01T07:56:43;18.92;;;16.02;;
41952;SDS011;63613;28.200;112.870;2023-04-01T08:10:25;22.55;;;15.90;;
41952;SDS011;63613;28.200;112.870;2023-04-01T08:13:35;21.83;;;16.17;;
41952;SDS011;63613;28.200;112.870;2023-04-01T08:21:30;18.52;;;14.25;;
41952;SDS011;63613;28.200;112.870;2023-04-01T08:24:33;17.63;;;13.75;;
41952;SDS011;63613;28.200;112.870;2023-04-01T08:33:00;13.90;;;12.10;;
41952;SDS011;63613;28.200;112.870;2023-04-01T08:41:37;14.60;;;11.93;;
41952;SDS011;63613;28.200;112.870;2023-04-01T09:13:56;23.05;;;17.67;;
41952;SDS011;63613;28.200;112.870;2023-04-01T09:25:02;18.13;;;15.30;;
41952;SDS011;63613;28.200;112.870;2023-04-01T09:41:31;21.60;;;16.00;;
41952;SDS011;63613;28.200;112.870;2023-04-01T09:44:24;22.52;;;14.93;;
41952;SDS011;63613;28.200;112.870;2023-04-01T09:47:30;19.67;;;15.48;;
41952;SDS011;63613;28.200;112.870;2023-04-01T09:50:27;18.35;;;14.15;;
41952;SDS011;63613;28.200;112.870;2023-04-01T09:53:18;20.65;;;15.02;;
41952;SDS011;63613;28.200;112.870;2023-04-01T10:21:56;21.55;;;15.05;;
41952;SDS011;63613;28.200;112.870;2023-04-01T10:27:09;28.73;;;16.40;;
41952;SDS011;63613;28.200;112.870;2023-04-01T10:44:03;24.30;;;16.95;;
41952;SDS011;63613;28.200;112.870;2023-04-01T10:57:48;26.85;;;16.88;;
41952;SDS011;63613;28.200;112.870;2023-04-01T11:03:29;26.17;;;17.30;;
41952;SDS011;63613;28.200;112.870;2023-04-01T11:06:20;24.67;;;17.90;;
41952;SDS011;63613;28.200;112.870;2023-04-01T11:09:26;28.85;;;18.55;;
41952;SDS011;63613;28.200;112.870;2023-04-01T11:35:02;24.47;;;15.43;;
41952;SDS011;63613;28.200;112.870;2023-04-01T11:37:37;21.90;;;14.90;;
41952;SDS011;63613;28.200;112.870;2023-04-01T11:41:34;21.17;;;14.68;;
41952;SDS011;63613;28.200;112.870;2023-04-01T11:46:56;22.08;;;14.55;;
41952;SDS011;63613;28.200;112.870;2023-04-01T11:52:08;23.23;;;14.60;;
41952;SDS011;63613;28.200;112.870;2023-04-01T11:55:06;20.33;;;14.52;;
41952;SDS011;63613;28.200;112.870;2023-04-01T12:00:29;25.42;;;15.40;;
41952;SDS011;63613;28.200;112.870;2023-04-01T12:14:37;25.90;;;15.57;;
41952;SDS011;63613;28.200;112.870;2023-04-01T12:23:56;19.98;;;15.02;;
41952;SDS011;63613;28.200;112.870;2023-04-01T12:40:47;23.30;;;16.20;;
41952;SDS011;63613;28.200;112.870;2023-04-01T12:43:34;22.23;;;16.17;;
41952;SDS011;63613;28.200;112.870;2023-04-01T12:52:00;24.27;;;17.73;;
41952;SDS011;63613;28.200;112.870;2023-04-01T13:00:40;26.60;;;17.05;;
41952;SDS011;63613;28.200;112.870;2023-04-01T13:17:24;25.70;;;17.48;;
41952;SDS011;63613;28.200;112.870;2023-04-01T13:25:24;24.02;;;16.83;;
41952;SDS011;63613;28.200;112.870;2023-04-01T13:27:57;20.65;;;16.98;;
41952;SDS011;63613;28.200;112.870;2023-04-01T13:30:37;27.50;;;17.60;;
41952;SDS011;63613;28.200;112.870;2023-04-01T13:41:22;26.55;;;18.15;;
41952;SDS011;63613;28.200;112.870;2023-04-01T13:44:15;25.90;;;17.90;;
41952;SDS011;63613;28.200;112.870;2023-04-01T14:04:14;23.05;;;16.38;;
41952;SDS011;63613;28.200;112.870;2023-04-01T14:30:20;23.45;;;17.10;;
41952;SDS011;63613;28.200;112.870;2023-04-01T14:35:49;24.25;;;17.42;;
41952;SDS011;63613;28.200;112.870;2023-04-01T14:38:59;22.90;;;17.75;;
41952;SDS011;63613;28.200;112.870;2023-04-01T14:41:40;20.52;;;16.15;;
41952;SDS011;63613;28.200;112.870;2023-04-01T14:47:28;22.50;;;18.13;;
41952;SDS011;63613;28.200;112.870;2023-04-01T14:50:05;21.60;;;17.50;;
41952;SDS011;63613;28.200;112.870;2023-04-01T14:52:41;23.10;;;17.73;;
41952;SDS011;63613;28.200;112.870;2023-04-01T14:56:18;21.70;;;17.52;;
41952;SDS011;63613;28.200;112.870;2023-04-01T14:58:51;21.80;;;17.48;;
41952;SDS011;63613;28.200;112.870;2023-04-01T15:10:07;21.48;;;16.90;;
41952;SDS011;63613;28.200;112.870;2023-04-01T15:18:51;22.90;;;17.75;;
41952;SDS011;63613;28.200;112.870;2023-04-01T15:26:59;23.92;;;18.73;;
41952;SDS011;63613;28.200;112.870;2023-04-01T15:35:31;23.60;;;18.67;;
41952;SDS011;63613;28.200;112.870;2023-04-01T15:44:25;21.10;;;18.45;;
41952;SDS011;63613;28.200;112.870;2023-04-01T15:46:58;22.67;;;17.92;;
41952;SDS011;63613;28.200;112.870;2023-04-01T15:58:43;21.80;;;19.15;;
41952;SDS011;63613;28.200;112.870;2023-04-01T16:01:34;26.70;;;19.80;;
41952;SDS011;63613;28.200;112.870;2023-04-01T16:06:49;27.30;;;19.65;;
41952;SDS011;63613;28.200;112.870;2023-04-01T16:12:33;24.80;;;20.05;;
41952;SDS011;63613;28.200;112.870;2023-04-01T16:15:34;24.77;;;19.58;;
41952;SDS011;63613;28.200;112.870;2023-04-01T16:26:43;24.50;;;19.52;;
41952;SDS011;63613;28.200;112.870;2023-04-01T16:29:21;23.92;;;21.17;;
41952;SDS011;63613;28.200;112.870;2023-04-01T16:38:15;24.67;;;20.50;;
41952;SDS011;63613;28.200;112.870;2023-04-01T16:43:30;23.15;;;20.65;;
41952;SDS011;63613;28.200;112.870;2023-04-01T16:49:00;23.20;;;20.38;;
41952;SDS011;63613;28.200;112.870;2023-04-01T16:51:48;22.20;;;19.90;;
41952;SDS011;63613;28.200;112.870;2023-04-01T16:57:43;23.17;;;19.67;;
41952;SDS011;63613;28.200;112.870;2023-04-01T17:05:52;24.58;;;21.88;;
41952;SDS011;63613;28.200;112.870;2023-04-01T17:13:58;24.67;;;21.10;;
41952;SDS011;63613;28.200;112.870;2023-04-01T17:25:12;25.75;;;21.15;;
41952;SDS011;63613;28.200;112.870;2023-04-01T17:30:24;23.67;;;20.47;;
41952;SDS011;63613;28.200;112.870;2023-04-01T17:33:30;22.08;;;19.73;;
41952;SDS011;63613;28.200;112.870;2023-04-01T17:44:31;24.58;;;20.92;;
41952;SDS011;63613;28.200;112.870;2023-04-01T17:55:43;24.98;;;21.20;;
41952;SDS011;63613;28.200;112.870;2023-04-01T17:58:33;22.88;;;20.40;;
41952;SDS011;63613;28.200;112.870;2023-04-01T18:01:38;22.20;;;20.00;;
41952;SDS011;63613;28.200;112.870;2023-04-01T18:21:10;23.55;;;20.45;;
41952;SDS011;63613;28.200;112.870;2023-04-01T18:24:14;25.83;;;20.97;;
41952;SDS011;63613;28.200;112.870;2023-04-01T18:26:44;24.90;;;19.58;;
41952;SDS011;63613;28.200;112.870;2023-04-01T18:37:31;21.52;;;19.33;;
41952;SDS011;63613;28.200;112.870;2023-04-01T18:40:15;23.10;;;20.08;;
41952;SDS011;63613;28.200;112.870;2023-04-01T18:46:05;21.98;;;19.65;;
41952;SDS011;63613;28.200;112.870;2023-04-01T18:48:51;21.95;;;19.65;;
41952;SDS011;63613;28.200;112.870;2023-04-01T18:51:26;20.55;;;18.33;;
41952;SDS011;63613;28.200;112.870;2023-04-01T18:54:05;23.13;;;20.63;;
41952;SDS011;63613;28.200;112.870;2023-04-01T18:56:45;22.17;;;19.70;;
41952;SDS011;63613;28.200;112.870;2023-04-01T18:59:17;21.65;;;19.40;;
41952;SDS011;63613;28.200;112.870;2023-04-01T19:02:03;24.05;;;20.73;;
41952;SDS011;63613;28.200;112.870;2023-04-01T19:13:06;22.90;;;20.10;;
41952;SDS011;63613;28.200;112.870;2023-04-01T19:18:25;25.48;;;22.25;;
41952;SDS011;63613;28.200;112.870;2023-04-01T19:21:07;24.98;;;21.27;;
41952;SDS011;63613;28.200;112.870;2023-04-01T19:23:51;24.17;;;20.45;;
41952;SDS011;63613;28.200;112.870;2023-04-01T19:26:47;23.77;;;20.67;;
41952;SDS011;63613;28.200;112.870;2023-04-01T19:29:58;24.10;;;21.27;;
41952;SDS011;63613;28.200;112.870;2023-04-01T19:47:57;24.20;;;21.15;;
41952;SDS011;63613;28.200;112.870;2023-04-01T19:50:50;24.67;;;20.02;;
41952;SDS011;63613;28.200;112.870;2023-04-01T19:56:20;22.55;;;20.15;;
41952;SDS011;63613;28.200;112.870;2023-04-01T20:02:24;23.17;;;20.77;;
41952;SDS011;63613;28.200;112.870;2023-04-01T20:04:53;24.88;;;21.77;;
41952;SDS011;63613;28.200;112.870;2023-04-01T20:07:42;25.10;;;21.58;;
41952;SDS011;63613;28.200;112.870;2023-04-01T20:15:45;24.90;;;22.20;;
41952;SDS011;63613;28.200;112.870;2023-04-01T20:18:47;25.83;;;21.73;;
41952;SDS011;63613;28.200;112.870;2023-04-01T20:26:50;24.45;;;21.90;;
41952;SDS011;63613;28.200;112.870;2023-04-01T20:29:40;25.02;;;21.38;;
41952;SDS011;63613;28.200;112.870;2023-04-01T20:35:00;24.92;;;22.33;;
41952;SDS011;63613;28.200;112.870;2023-04-01T20:37:42;23.50;;;20.90;;
41952;SDS011;63613;28.200;112.870;2023-04-01T20:45:58;23.38;;;20.88;;
41952;SDS011;63613;28.200;112.870;2023-04-01T20:51:33;23.83;;;21.30;;
41952;SDS011;63613;28.200;112.870;2023-04-01T20:54:12;22.77;;;20.40;;
41952;SDS011;63613;28.200;112.870;2023-04-01T21:02:32;23.88;;;21.02;;
41952;SDS011;63613;28.200;112.870;2023-04-01T21:16:52;25.90;;;21.13;;
41952;SDS011;63613;28.200;112.870;2023-04-01T21:22:28;25.20;;;22.55;;
41952;SDS011;63613;28.200;112.870;2023-04-01T21:36:37;26.05;;;23.33;;
41952;SDS011;63613;28.200;112.870;2023-04-01T21:44:51;26.02;;;22.50;;
41952;SDS011;63613;28.200;112.870;2023-04-01T21:53:19;25.13;;;22.38;;
41952;SDS011;63613;28.200;112.870;2023-04-01T21:59:01;24.45;;;21.42;;
41952;SDS011;63613;28.200;112.870;2023-04-01T22:07:12;26.73;;;22.30;;
41952;SDS011;63613;28.200;112.870;2023-04-01T22:15:58;24.92;;;22.17;;
41952;SDS011;63613;28.200;112.870;2023-04-01T22:25:11;25.63;;;21.93;;
41952;SDS011;63613;28.200;112.870;2023-04-01T22:27:46;24.63;;;21.42;;
41952;SDS011;63613;28.200;112.870;2023-04-01T22:30:41;25.63;;;21.40;;
41952;SDS011;63613;28.200;112.870;2023-04-01T22:33:15;24.17;;;21.63;;
41952;SDS011;63613;28.200;112.870;2023-04-01T22:41:43;25.92;;;22.38;;
41952;SDS011;63613;28.200;112.870;2023-04-01T22:44:32;25.02;;;21.90;;
41952;SDS011;63613;28.200;112.870;2023-04-01T22:47:15;24.80;;;21.77;;
41952;SDS011;63613;28.200;112.870;2023-04-01T22:50:03;27.70;;;23.40;;
41952;SDS011;63613;28.200;112.870;2023-04-01T22:52:42;24.77;;;22.15;;
41952;SDS011;63613;28.200;112.870;2023-04-01T22:55:22;25.50;;;22.45;;
41952;SDS011;63613;28.200;112.870;2023-04-01T22:58:05;27.38;;;23.33;;
41952;SDS011;63613;28.200;112.870;2023-04-01T23:00:40;26.77;;;22.33;;
41952;SDS011;63613;28.200;112.870;2023-04-01T23:05:56;27.55;;;22.63;;
41952;SDS011;63613;28.200;112.870;2023-04-01T23:11:28;24.70;;;22.08;;
41952;SDS011;63613;28.200;112.870;2023-04-01T23:17:36;26.85;;;23.25;;
41952;SDS011;63613;28.200;112.870;2023-04-01T23:22:49;24.27;;;20.80;;
41952;SDS011;63613;28.200;112.870;2023-04-01T23:28:17;27.52;;;23.65;;
41952;SDS011;63613;28.200;112.870;2023-04-01T23:31:03;25.35;;;22.65;;
41952;SDS011;63613;28.200;112.870;2023-04-01T23:33:59;26.63;;;23.55;;
41952;SDS011;63613;28.200;112.870;2023-04-01T23:36:50;30.20;;;25.30;;
41952;SDS011;63613;28.200;112.870;2023-04-01T23:39:28;28.65;;;23.50;;
41952;SDS011;63613;28.200;112.870;2023-04-01T23:42:00;28.27;;;23.73;;
41952;SDS011;63613;28.200;112.870;2023-04-01T23:44:30;28.08;;;24.42;;
41952;SDS011;63613;28.200;112.870;2023-04-01T23:46:59;30.20;;;24.77;;
41952;SDS011;63613;28.200;112.870;2023-04-01T23:49:30;27.05;;;23.65;;
41952;SDS011;63613;28.200;112.870;2023-04-01T23:52:04;30.55;;;24.38;;
